Time;durP1;ratioP1;P1;durP2;ratioP2;P2;SDS_P1;SDS_P2;PMS_P1;PMS_P2;Temp;Humidity;BMP_temperature;BMP_pressure;BME280_temperature;BME280_humidity;BME280_pressure;Samples;Min_cycle;Max_cycle;Signal;HPM_P1;HPM_P2
2023/04/01 00:01:33;;;;;;;0.97;0.47;;;;;;;;;;5089671;28;20555;-61
2023/04/01 00:04:01;;;;;;;1.90;0.50;;;;;;;;;;5090181;28;20195;-61
2023/04/01 00:06:29;;;;;;;0.57;0.40;;;;;;;;;;5090267;28;20202;-63
2023/04/01 00:08:56;;;;;;;2.90;0.40;;;;;;;;;;5089892;28;20691;-61
2023/04/01 00:11:27;;;;;;;0.50;0.50;;;;;;;;;;5089087;28;20206;-61
2023/04/01 00:13:54;;;;;;;1.50;0.37;;;;;;;;;;5089552;28;20218;-61
2023/04/01 00:16:21;;;;;;;3.40;0.40;;;;;;;;;;5088924;28;20677;-61
2023/04/01 00:18:48;;;;;;;0.57;0.50;;;;;;;;;;5088827;28;20210;-61
2023/04/01 00:21:16;;;;;;;0.73;0.33;;;;;;;;;;5088719;28;20264;-61
2023/04/01 00:23:43;;;;;;;0.40;0.33;;;;;;;;;;5088486;28;20249;-60
2023/04/01 00:26:11;;;;;;;0.17;0.17;;;;;;;;;;5089050;28;20203;-60
2023/04/01 00:28:40;;;;;;;0.87;0.30;;;;;;;;;;5087823;28;20207;-62
2023/04/01 00:31:07;;;;;;;0.10;0.10;;;;;;;;;;5088812;28;20218;-61
2023/04/01 00:33:35;;;;;;;1.30;0.50;;;;;;;;;;5088363;28;20234;-61
2023/04/01 00:36:09;;;;;;;0.27;0.20;;;;;;;;;;5088402;28;20237;-62
2023/04/01 00:38:37;;;;;;;0.93;0.30;;;;;;;;;;5088418;28;20665;-61
2023/04/01 00:41:04;;;;;;;0.43;0.20;;;;;;;;;;5088423;28;20290;-62
2023/04/01 00:43:31;;;;;;;0.50;0.20;;;;;;;;;;5087894;28;20611;-62
2023/04/01 00:46:00;;;;;;;4.40;0.43;;;;;;;;;;5088208;28;20209;-61
2023/04/01 00:48:30;;;;;;;0.23;0.23;;;;;;;;;;5088007;28;20206;-61
2023/04/01 00:50:59;;;;;;;1.07;0.40;;;;;;;;;;5088904;28;20210;-61
2023/04/01 00:53:26;;;;;;;1.00;0.30;;;;;;;;;;5087853;28;20309;-61
2023/04/01 00:55:55;;;;;;;0.37;0.10;;;;;;;;;;5088382;28;20207;-61
2023/04/01 00:58:25;;;;;;;0.67;0.40;;;;;;;;;;5084652;28;20639;-61
2023/04/01 01:00:52;;;;;;;1.70;0.50;;;;;;;;;;5082074;28;20206;-61
2023/04/01 01:03:21;;;;;;;1.07;0.40;;;;;;;;;;5085077;28;20213;-61
2023/04/01 01:06:02;;;;;;;1.03;0.10;;;;;;;;;;5085508;28;20774;-62
2023/04/01 01:08:36;;;;;;;1.83;0.30;;;;;;;;;;5086607;28;20202;-62
2023/04/01 01:11:03;;;;;;;0.37;0.20;;;;;;;;;;5087985;28;20209;-61
2023/04/01 01:13:34;;;;;;;4.63;0.30;;;;;;;;;;5087676;28;20228;-61
2023/04/01 01:16:05;;;;;;;2.07;0.40;;;;;;;;;;5088136;28;20285;-61
2023/04/01 01:18:36;;;;;;;0.67;0.30;;;;;;;;;;5087352;28;20310;-61
2023/04/01 01:21:17;;;;;;;1.73;0.47;;;;;;;;;;5088623;28;20221;-61
2023/04/01 01:23:53;;;;;;;1.00;0.50;;;;;;;;;;5088239;28;20240;-61
2023/04/01 01:26:28;;;;;;;0.60;0.30;;;;;;;;;;5088293;28;20217;-61
2023/04/01 01:29:00;;;;;;;0.20;0.20;;;;;;;;;;5087833;28;20224;-61
2023/04/01 01:31:33;;;;;;;2.73;0.40;;;;;;;;;;5088522;28;20239;-61
2023/04/01 01:34:04;;;;;;;0.83;0.20;;;;;;;;;;5088091;28;20253;-61
2023/04/01 01:36:34;;;;;;;1.20;0.10;;;;;;;;;;5088265;28;20206;-61
2023/04/01 01:39:02;;;;;;;1.50;0.50;;;;;;;;;;5088067;28;20301;-61
2023/04/01 01:41:30;;;;;;;1.27;0.30;;;;;;;;;;5088048;28;20197;-62
2023/04/01 01:43:58;;;;;;;0.87;0.20;;;;;;;;;;5087974;28;20202;-61
2023/04/01 01:46:27;;;;;;;0.93;0.20;;;;;;;;;;5087928;28;20293;-62
2023/04/01 01:48:54;;;;;;;2.10;0.30;;;;;;;;;;5087804;28;20209;-61
2023/04/01 01:51:23;;;;;;;0.10;0.10;;;;;;;;;;5087764;28;20210;-61
2023/04/01 01:53:51;;;;;;;0.50;0.20;;;;;;;;;;5087838;28;20215;-61
2023/04/01 01:56:29;;;;;;;0.93;0.50;;;;;;;;;;5087790;28;20207;-61
2023/04/01 01:58:58;;;;;;;1.20;0.30;;;;;;;;;;5087703;28;20221;-62
2023/04/01 02:01:26;;;;;;;0.63;0.30;;;;;;;;;;5087835;28;20202;-61
2023/04/01 02:03:53;;;;;;;1.60;0.40;;;;;;;;;;5087814;28;20202;-61
2023/04/01 02:06:23;;;;;;;0.70;0.43;;;;;;;;;;5087779;28;20206;-61
2023/04/01 02:08:52;;;;;;;1.60;0.20;;;;;;;;;;5087696;28;20198;-62
2023/04/01 02:11:21;;;;;;;0.57;0.20;;;;;;;;;;5072722;28;20202;-62
2023/04/01 02:13:51;;;;;;;1.10;0.40;;;;;;;;;;5087564;28;20222;-62
2023/04/01 02:16:21;;;;;;;0.20;0.20;;;;;;;;;;5087678;28;20209;-61
2023/04/01 02:18:50;;;;;;;1.17;0.37;;;;;;;;;;5087400;28;20209;-61
2023/04/01 02:21:18;;;;;;;0.13;0.13;;;;;;;;;;5087599;28;20210;-62
2023/04/01 02:23:46;;;;;;;0.33;0.20;;;;;;;;;;5087042;28;20540;-61
2023/04/01 02:26:16;;;;;;;1.90;0.20;;;;;;;;;;5067697;28;20214;-62
2023/04/01 02:28:44;;;;;;;1.10;0.27;;;;;;;;;;5077227;28;20211;-61
2023/04/01 02:31:12;;;;;;;2.07;0.30;;;;;;;;;;5087902;28;20198;-62
2023/04/01 02:33:40;;;;;;;1.47;0.50;;;;;;;;;;5086926;28;20237;-62
2023/04/01 02:36:07;;;;;;;0.30;0.30;;;;;;;;;;5087649;28;20213;-62
2023/04/01 02:38:37;;;;;;;1.57;0.23;;;;;;;;;;5087361;28;20289;-62
2023/04/01 02:41:05;;;;;;;2.10;0.40;;;;;;;;;;5087590;28;20198;-62
2023/04/01 02:43:33;;;;;;;2.00;0.67;;;;;;;;;;5087423;28;20210;-62
2023/04/01 02:46:01;;;;;;;1.20;0.30;;;;;;;;;;5071785;28;20668;-62
2023/04/01 02:48:28;;;;;;;0.50;0.23;;;;;;;;;;5087587;28;20305;-62
2023/04/01 02:50:55;;;;;;;0.10;0.10;;;;;;;;;;5087016;28;20213;-62
2023/04/01 02:53:23;;;;;;;2.17;0.20;;;;;;;;;;5091440;28;20229;-62
2023/04/01 02:55:51;;;;;;;1.10;0.30;;;;;;;;;;5091066;28;20232;-62
2023/04/01 02:58:18;;;;;;;0.97;0.20;;;;;;;;;;5091678;28;20237;-62
2023/04/01 03:00:47;;;;;;;2.00;0.40;;;;;;;;;;5091116;28;20217;-62
2023/04/01 03:03:14;;;;;;;0.43;0.20;;;;;;;;;;5091387;28;20206;-62
2023/04/01 03:05:41;;;;;;;1.90;0.40;;;;;;;;;;5090784;28;20506;-62
2023/04/01 03:08:08;;;;;;;0.33;0.10;;;;;;;;;;5091357;28;20225;-62
2023/04/01 03:10:35;;;;;;;1.13;0.27;;;;;;;;;;5090971;28;20213;-62
2023/04/01 03:13:02;;;;;;;1.07;0.30;;;;;;;;;;5091086;28;20202;-62
2023/04/01 03:15:29;;;;;;;0.50;0.20;;;;;;;;;;5090997;28;20194;-62
2023/04/01 03:17:58;;;;;;;0.23;0.23;;;;;;;;;;5090571;28;20209;-61
2023/04/01 03:20:25;;;;;;;0.57;0.30;;;;;;;;;;5090906;28;20218;-61
2023/04/01 03:22:52;;;;;;;6.60;0.50;;;;;;;;;;5090378;28;20271;-61
2023/04/01 03:25:19;;;;;;;1.20;0.20;;;;;;;;;;5091039;28;20911;-61
2023/04/01 03:27:46;;;;;;;1.50;0.10;;;;;;;;;;5090538;28;20662;-62
2023/04/01 03:30:16;;;;;;;1.70;0.10;;;;;;;;;;5090988;28;20202;-61
2023/04/01 03:32:43;;;;;;;2.23;0.33;;;;;;;;;;5090500;28;20202;-60
2023/04/01 03:35:12;;;;;;;1.77;0.20;;;;;;;;;;5090157;28;20701;-60
2023/04/01 03:37:39;;;;;;;2.23;0.40;;;;;;;;;;5089813;28;20209;-60
2023/04/01 03:40:07;;;;;;;1.57;0.33;;;;;;;;;;5090743;28;20548;-61
2023/04/01 03:42:34;;;;;;;0.23;0.23;;;;;;;;;;5089941;28;20218;-61
2023/04/01 03:45:01;;;;;;;1.00;0.20;;;;;;;;;;5090249;28;20198;-60
2023/04/01 03:47:28;;;;;;;0.37;0.20;;;;;;;;;;5090207;28;20619;-60
2023/04/01 03:49:55;;;;;;;1.50;0.20;;;;;;;;;;5089774;28;20237;-61
2023/04/01 03:52:43;;;;;;;1.07;0.30;;;;;;;;;;5090343;28;20217;-61
2023/04/01 03:55:12;;;;;;;0.13;0.13;;;;;;;;;;5089510;28;20223;-61
2023/04/01 03:57:39;;;;;;;0.37;0.30;;;;;;;;;;5089936;28;20207;-60
2023/04/01 04:00:08;;;;;;;1.87;0.33;;;;;;;;;;5089649;28;20205;-61
2023/04/01 04:02:35;;;;;;;0.10;0.10;;;;;;;;;;5089508;28;20205;-61
2023/04/01 04:05:02;;;;;;;0.30;0.20;;;;;;;;;;5087057;28;20642;-61
2023/04/01 04:07:29;;;;;;;1.63;0.20;;;;;;;;;;5090105;28;20755;-60
2023/04/01 04:09:56;;;;;;;2.20;0.37;;;;;;;;;;5088213;28;20235;-60
2023/04/01 04:12:25;;;;;;;2.53;0.30;;;;;;;;;;5089993;28;20206;-60
2023/04/01 04:14:52;;;;;;;2.37;0.20;;;;;;;;;;5089529;28;20233;-60
2023/04/01 04:17:19;;;;;;;1.30;0.17;;;;;;;;;;5089440;28;20214;-60
2023/04/01 04:19:46;;;;;;;0.20;0.20;;;;;;;;;;5088655;28;20202;-61
2023/04/01 04:22:13;;;;;;;0.40;0.17;;;;;;;;;;5080151;28;20261;-61
2023/04/01 04:24:40;;;;;;;0.40;0.10;;;;;;;;;;5087673;28;20241;-62
2023/04/01 04:27:07;;;;;;;0.20;0.20;;;;;;;;;;5089572;28;20209;-60
2023/04/01 04:29:38;;;;;;;0.73;0.37;;;;;;;;;;5089685;28;20210;-64
2023/04/01 04:32:05;;;;;;;0.37;0.20;;;;;;;;;;5070683;28;20683;-62
2023/04/01 04:34:32;;;;;;;3.37;0.20;;;;;;;;;;5089132;28;20230;-62
2023/04/01 04:37:00;;;;;;;1.90;0.27;;;;;;;;;;5089684;28;20198;-60
2023/04/01 04:39:27;;;;;;;0.57;0.20;;;;;;;;;;5088986;28;20202;-61
2023/04/01 04:41:54;;;;;;;0.10;0.10;;;;;;;;;;5089289;28;20202;-61
2023/04/01 04:44:21;;;;;;;2.00;0.30;;;;;;;;;;5088846;28;20202;-63
2023/04/01 04:46:49;;;;;;;0.13;0.13;;;;;;;;;;5087886;28;20210;-61
2023/04/01 04:49:16;;;;;;;0.13;0.10;;;;;;;;;;5088212;28;20226;-61
2023/04/01 04:51:44;;;;;;;2.20;0.20;;;;;;;;;;5086541;28;20293;-60
2023/04/01 04:54:11;;;;;;;0.47;0.40;;;;;;;;;;5086262;28;20226;-61
2023/04/01 04:56:38;;;;;;;2.03;0.30;;;;;;;;;;5087421;28;20692;-62
2023/04/01 04:59:05;;;;;;;0.23;0.23;;;;;;;;;;5087499;28;20556;-61
2023/04/01 05:01:33;;;;;;;0.23;0.17;;;;;;;;;;5089268;28;20885;-61
2023/04/01 05:04:01;;;;;;;0.33;0.33;;;;;;;;;;5089324;28;20207;-61
2023/04/01 05:06:29;;;;;;;0.20;0.20;;;;;;;;;;5089246;28;20209;-62
2023/04/01 05:08:57;;;;;;;0.10;0.10;;;;;;;;;;5089339;28;20704;-61
2023/04/01 05:11:25;;;;;;;0.10;0.10;;;;;;;;;;5089044;28;20233;-61
2023/04/01 05:13:53;;;;;;;1.50;0.30;;;;;;;;;;5088551;28;20233;-60
2023/04/01 05:16:20;;;;;;;8.27;0.30;;;;;;;;;;5089091;28;20207;-60
2023/04/01 05:18:47;;;;;;;1.30;0.50;;;;;;;;;;5088753;28;20206;-61
2023/04/01 05:21:16;;;;;;;1.13;0.20;;;;;;;;;;5088990;28;20225;-61
2023/04/01 05:23:43;;;;;;;0.93;0.10;;;;;;;;;;5088276;28;20727;-60
2023/04/01 05:26:12;;;;;;;0.40;0.20;;;;;;;;;;5088349;28;20355;-61
2023/04/01 05:28:39;;;;;;;0.20;0.20;;;;;;;;;;5085780;28;20552;-61
2023/04/01 05:31:06;;;;;;;1.80;0.20;;;;;;;;;;5089543;28;20210;-61
2023/04/01 05:33:34;;;;;;;1.37;0.20;;;;;;;;;;5088987;28;20206;-61
2023/04/01 05:36:07;;;;;;;0.37;0.13;;;;;;;;;;5089279;28;20202;-62
2023/04/01 05:38:35;;;;;;;2.03;0.37;;;;;;;;;;5089005;28;20210;-62
2023/04/01 05:41:03;;;;;;;0.63;0.63;;;;;;;;;;5089555;28;20216;-62
2023/04/01 05:43:30;;;;;;;1.43;0.30;;;;;;;;;;5089088;28;20202;-62
2023/04/01 05:45:57;;;;;;;0.13;0.13;;;;;;;;;;5089208;28;20661;-61
2023/04/01 05:48:24;;;;;;;0.47;0.47;;;;;;;;;;5088943;28;20198;-63
2023/04/01 05:50:51;;;;;;;0.27;0.23;;;;;;;;;;5088954;28;20217;-62
2023/04/01 05:53:23;;;;;;;0.33;0.10;;;;;;;;;;5089353;28;20206;-63
2023/04/01 05:55:52;;;;;;;0.47;0.20;;;;;;;;;;5089052;28;20249;-61
2023/04/01 05:58:19;;;;;;;0.87;0.20;;;;;;;;;;5089261;28;20233;-61
2023/04/01 06:00:46;;;;;;;0.30;0.20;;;;;;;;;;5088800;28;20198;-60
2023/04/01 06:03:13;;;;;;;1.90;0.20;;;;;;;;;;5089202;28;20271;-61
2023/04/01 06:05:41;;;;;;;1.30;0.33;;;;;;;;;;5088927;28;20215;-61
2023/04/01 06:08:11;;;;;;;0.10;0.00;;;;;;;;;;5089637;28;20205;-61
2023/04/01 06:10:42;;;;;;;1.60;0.20;;;;;;;;;;5089266;28;20212;-61
2023/04/01 06:13:14;;;;;;;0.40;0.10;;;;;;;;;;5088957;28;20202;-62
2023/04/01 06:15:43;;;;;;;0.10;0.10;;;;;;;;;;5089195;28;20828;-61
2023/04/01 06:18:18;;;;;;;1.40;0.20;;;;;;;;;;5088630;28;20244;-62
2023/04/01 06:20:49;;;;;;;0.10;0.10;;;;;;;;;;5088575;28;20210;-62
2023/04/01 06:23:28;;;;;;;0.10;0.10;;;;;;;;;;5089325;28;20414;-62
2023/04/01 06:26:09;;;;;;;0.20;0.20;;;;;;;;;;5088861;28;20557;-63
2023/04/01 06:28:48;;;;;;;2.13;0.23;;;;;;;;;;5093216;28;20205;-62
2023/04/01 06:31:22;;;;;;;0.13;0.13;;;;;;;;;;5093012;28;20206;-61
2023/04/01 06:33:58;;;;;;;0.20;0.20;;;;;;;;;;5092553;28;20209;-61
2023/04/01 06:36:36;;;;;;;0.27;0.20;;;;;;;;;;5089581;28;20208;-62
2023/04/01 06:39:21;;;;;;;2.10;0.10;;;;;;;;;;5092611;28;20206;-61
2023/04/01 06:42:04;;;;;;;0.30;0.13;;;;;;;;;;5091307;28;20289;-62
2023/04/01 06:44:38;;;;;;;1.20;0.10;;;;;;;;;;5092826;28;20426;-61
2023/04/01 06:47:09;;;;;;;0.17;0.17;;;;;;;;;;5092250;28;20691;-60
2023/04/01 06:49:46;;;;;;;0.13;0.13;;;;;;;;;;5092690;28;20214;-63
2023/04/01 06:52:16;;;;;;;1.53;0.20;;;;;;;;;;5092726;28;20230;-61
2023/04/01 06:54:45;;;;;;;0.10;0.10;;;;;;;;;;5092422;28;20226;-61
2023/04/01 06:57:20;;;;;;;0.20;0.13;;;;;;;;;;5092539;28;20451;-61
2023/04/01 06:59:50;;;;;;;0.00;0.00;;;;;;;;;;5092272;28;20202;-62
2023/04/01 07:02:22;;;;;;;0.20;0.00;;;;;;;;;;5091510;28;20206;-63
2023/04/01 07:04:52;;;;;;;0.00;0.00;;;;;;;;;;5092477;28;20313;-61
2023/04/01 07:07:23;;;;;;;1.40;0.20;;;;;;;;;;5091988;28;20206;-62
2023/04/01 07:09:51;;;;;;;0.20;0.20;;;;;;;;;;5092191;28;20198;-61
2023/04/01 07:12:23;;;;;;;0.20;0.13;;;;;;;;;;5091953;28;20206;-60
2023/04/01 07:14:53;;;;;;;1.43;0.20;;;;;;;;;;5091741;28;20225;-60
2023/04/01 07:17:22;;;;;;;1.40;0.10;;;;;;;;;;5091822;28;20205;-61
2023/04/01 07:19:52;;;;;;;0.63;0.10;;;;;;;;;;5091868;28;20206;-62
2023/04/01 07:22:23;;;;;;;0.00;0.00;;;;;;;;;;5092056;28;20732;-63
2023/04/01 07:24:50;;;;;;;0.23;0.10;;;;;;;;;;5091994;28;20205;-61
2023/04/01 07:27:17;;;;;;;0.10;0.10;;;;;;;;;;5092090;28;20210;-61
2023/04/01 07:29:44;;;;;;;0.50;0.10;;;;;;;;;;5091457;28;20203;-61
2023/04/01 07:32:17;;;;;;;0.77;0.00;;;;;;;;;;5091810;28;20218;-61
2023/04/01 07:34:51;;;;;;;0.10;0.10;;;;;;;;;;5091590;28;20569;-62
2023/04/01 07:37:22;;;;;;;0.73;0.23;;;;;;;;;;5091222;28;20206;-64
2023/04/01 07:39:55;;;;;;;0.20;0.13;;;;;;;;;;5091687;28;20213;-62
2023/04/01 07:42:25;;;;;;;0.70;0.17;;;;;;;;;;5091566;28;20199;-64
2023/04/01 07:44:56;;;;;;;0.10;0.10;;;;;;;;;;5091544;28;20208;-61
2023/04/01 07:47:31;;;;;;;0.30;0.10;;;;;;;;;;5087847;28;20210;-61
2023/04/01 07:50:03;;;;;;;1.70;0.10;;;;;;;;;;5089419;28;20664;-61
2023/04/01 07:52:33;;;;;;;0.03;0.03;;;;;;;;;;5091238;28;20209;-62
2023/04/01 07:55:04;;;;;;;0.20;0.20;;;;;;;;;;5091033;28;20223;-62
2023/04/01 07:57:35;;;;;;;0.20;0.20;;;;;;;;;;5086892;28;20621;-61
2023/04/01 08:00:05;;;;;;;0.10;0.10;;;;;;;;;;5091515;28;20583;-62
2023/04/01 08:02:41;;;;;;;0.00;0.00;;;;;;;;;;5091207;28;20198;-62
2023/04/01 08:05:15;;;;;;;0.00;0.00;;;;;;;;;;5091305;28;20216;-61
2023/04/01 08:07:46;;;;;;;0.30;0.17;;;;;;;;;;5091309;28;20668;-61
2023/04/01 08:10:15;;;;;;;0.63;0.20;;;;;;;;;;5091199;28;20206;-61
2023/04/01 08:12:47;;;;;;;0.30;0.20;;;;;;;;;;5091317;28;20234;-61
2023/04/01 08:15:16;;;;;;;0.00;0.00;;;;;;;;;;5090664;28;20219;-61
2023/04/01 08:17:51;;;;;;;0.10;0.10;;;;;;;;;;5090065;28;20194;-64
2023/04/01 08:20:24;;;;;;;0.10;0.10;;;;;;;;;;5088681;28;20248;-61
2023/04/01 08:22:52;;;;;;;0.20;0.20;;;;;;;;;;5089675;28;20291;-61
2023/04/01 08:25:22;;;;;;;0.27;0.10;;;;;;;;;;5090727;28;20638;-61
2023/04/01 08:27:50;;;;;;;0.20;0.10;;;;;;;;;;5089401;28;20205;-61
2023/04/01 08:30:19;;;;;;;0.20;0.20;;;;;;;;;;5090290;28;20209;-61
2023/04/01 08:32:48;;;;;;;0.33;0.30;;;;;;;;;;5090273;28;20241;-61
2023/04/01 08:35:18;;;;;;;0.60;0.60;;;;;;;;;;5090314;28;20732;-61
2023/04/01 08:37:46;;;;;;;0.50;0.30;;;;;;;;;;5089811;28;20209;-61
2023/04/01 08:40:27;;;;;;;0.40;0.10;;;;;;;;;;5090202;28;20214;-62
2023/04/01 08:43:06;;;;;;;0.20;0.07;;;;;;;;;;5089921;28;20301;-62
2023/04/01 08:45:52;;;;;;;0.10;0.10;;;;;;;;;;5090108;28;20875;-61
2023/04/01 08:48:35;;;;;;;0.00;0.00;;;;;;;;;;5089877;28;20210;-61
2023/04/01 08:51:18;;;;;;;0.10;0.10;;;;;;;;;;5088934;28;20214;-61
2023/04/01 08:53:51;;;;;;;0.10;0.10;;;;;;;;;;5089754;28;20201;-61
2023/04/01 08:56:20;;;;;;;0.10;0.10;;;;;;;;;;5089673;28;20230;-61
2023/04/01 08:58:56;;;;;;;0.10;0.10;;;;;;;;;;5085370;28;20595;-61
2023/04/01 09:01:33;;;;;;;0.10;0.10;;;;;;;;;;5086465;28;20221;-63
2023/04/01 09:04:08;;;;;;;0.30;0.20;;;;;;;;;;5087101;28;20816;-61
2023/04/01 09:06:39;;;;;;;0.10;0.10;;;;;;;;;;5088364;28;20202;-61
2023/04/01 09:09:16;;;;;;;0.10;0.10;;;;;;;;;;5088646;28;20210;-62
2023/04/01 09:11:51;;;;;;;0.13;0.13;;;;;;;;;;5089184;28;20226;-60
2023/04/01 09:14:42;;;;;;;0.00;0.00;;;;;;;;;;5086728;28;20680;-61
2023/04/01 09:17:27;;;;;;;2.33;0.20;;;;;;;;;;5071442;28;20652;-61
2023/04/01 09:20:03;;;;;;;0.00;0.00;;;;;;;;;;5086419;28;20209;-62
2023/04/01 09:22:38;;;;;;;0.10;0.10;;;;;;;;;;5088506;28;20298;-60
2023/04/01 09:25:26;;;;;;;0.60;0.10;;;;;;;;;;5086869;28;20292;-62
2023/04/01 09:27:57;;;;;;;0.07;0.07;;;;;;;;;;5087977;28;20208;-62
2023/04/01 09:30:34;;;;;;;0.10;0.10;;;;;;;;;;5087973;28;20729;-62
2023/04/01 09:33:20;;;;;;;3.20;0.20;;;;;;;;;;5088386;28;20672;-62
2023/04/01 09:35:50;;;;;;;0.00;0.00;;;;;;;;;;5086743;28;20214;-62
2023/04/01 09:38:22;;;;;;;0.00;0.00;;;;;;;;;;5088537;28;20635;-62
2023/04/01 09:40:54;;;;;;;0.10;0.10;;;;;;;;;;5088497;28;20217;-62
2023/04/01 09:43:28;;;;;;;0.00;0.00;;;;;;;;;;5088213;28;20230;-61
2023/04/01 09:46:10;;;;;;;0.00;0.00;;;;;;;;;;5088588;28;20205;-62
2023/04/01 09:48:56;;;;;;;0.00;0.00;;;;;;;;;;5085977;28;20210;-61
2023/04/01 09:51:29;;;;;;;0.00;0.00;;;;;;;;;;5087854;28;20210;-63
2023/04/01 09:54:03;;;;;;;0.00;0.00;;;;;;;;;;5088274;28;20206;-61
2023/04/01 09:56:54;;;;;;;0.00;0.00;;;;;;;;;;5088038;28;20230;-61
2023/04/01 09:59:45;;;;;;;0.10;0.10;;;;;;;;;;5088126;28;20212;-61
2023/04/01 10:02:30;;;;;;;0.10;0.10;;;;;;;;;;5071086;28;20688;-61
2023/04/01 10:05:14;;;;;;;0.00;0.00;;;;;;;;;;5088142;28;20213;-62
2023/04/01 10:07:53;;;;;;;0.00;0.00;;;;;;;;;;5087663;28;20293;-63
2023/04/01 10:10:39;;;;;;;0.00;0.00;;;;;;;;;;5067826;28;20214;-60
2023/04/01 10:13:25;;;;;;;0.00;0.00;;;;;;;;;;5070646;28;20293;-60
2023/04/01 10:16:07;;;;;;;0.10;0.10;;;;;;;;;;5087762;28;20236;-60
2023/04/01 10:18:52;;;;;;;0.82;0.15;;;;;;;;;;5085576;28;20198;-61
2023/04/01 10:21:44;;;;;;;2.55;0.90;;;;;;;;;;5087663;28;20284;-61
2023/04/01 10:24:19;;;;;;;1.85;0.80;;;;;;;;;;5087698;28;20242;-61
2023/04/01 10:27:03;;;;;;;1.10;1.05;;;;;;;;;;5087909;28;20212;-61
2023/04/01 10:29:46;;;;;;;0.30;0.30;;;;;;;;;;5087885;28;20206;-61
2023/04/01 10:32:31;;;;;;;0.10;0.10;;;;;;;;;;5088347;28;20217;-61
2023/04/01 10:35:11;;;;;;;0.00;0.00;;;;;;;;;;5068206;28;20211;-61
2023/04/01 10:37:48;;;;;;;0.00;0.00;;;;;;;;;;5069400;28;20202;-61
2023/04/01 10:40:26;;;;;;;0.10;0.10;;;;;;;;;;5087551;28;20547;-61
2023/04/01 10:43:06;;;;;;;0.22;0.05;;;;;;;;;;5087225;28;20679;-61
2023/04/01 10:45:54;;;;;;;0.08;0.08;;;;;;;;;;5087423;28;20202;-61
2023/04/01 10:48:37;;;;;;;0.00;0.00;;;;;;;;;;5087609;28;20198;-61
2023/04/01 10:51:13;;;;;;;0.00;0.00;;;;;;;;;;5087563;28;20202;-63
2023/04/01 10:54:07;;;;;;;0.05;0.05;;;;;;;;;;5086873;28;20205;-61
2023/04/01 10:56:38;;;;;;;0.00;0.00;;;;;;;;;;5051382;28;20237;-62
2023/04/01 10:59:17;;;;;;;0.00;0.00;;;;;;;;;;5087659;28;20213;-60
2023/04/01 11:02:01;;;;;;;0.38;0.10;;;;;;;;;;5087273;28;20216;-60
2023/04/01 11:04:49;;;;;;;0.10;0.10;;;;;;;;;;5087319;28;20211;-61
2023/04/01 11:07:46;;;;;;;0.10;0.00;;;;;;;;;;5086192;28;20223;-61
2023/04/01 11:10:27;;;;;;;0.10;0.10;;;;;;;;;;5077249;28;20217;-62
2023/04/01 11:13:19;;;;;;;0.00;0.00;;;;;;;;;;5088721;28;20687;-61
2023/04/01 11:16:02;;;;;;;0.00;0.00;;;;;;;;;;5070575;28;20234;-61
2023/04/01 11:18:47;;;;;;;0.10;0.10;;;;;;;;;;5070748;28;20209;-62
2023/04/01 11:21:29;;;;;;;0.30;0.10;;;;;;;;;;5086188;28;20660;-61
2023/04/01 11:24:07;;;;;;;0.00;0.00;;;;;;;;;;5090784;28;20234;-62
2023/04/01 11:26:35;;;;;;;0.08;0.08;;;;;;;;;;5090746;28;20550;-61
2023/04/01 11:29:08;;;;;;;0.00;0.00;;;;;;;;;;5091206;28;20207;-61
2023/04/01 11:31:43;;;;;;;0.03;0.03;;;;;;;;;;5090800;28;20206;-61
2023/04/01 11:34:18;;;;;;;0.00;0.00;;;;;;;;;;5090795;28;20208;-62
2023/04/01 11:36:48;;;;;;;0.00;0.00;;;;;;;;;;5090321;28;20229;-61
2023/04/01 11:39:23;;;;;;;0.00;0.00;;;;;;;;;;5090114;28;20214;-61
2023/04/01 11:41:54;;;;;;;0.00;0.00;;;;;;;;;;5090612;28;20210;-61
2023/04/01 11:44:23;;;;;;;0.00;0.00;;;;;;;;;;5090109;28;20647;-61
2023/04/01 11:47:14;;;;;;;0.00;0.00;;;;;;;;;;5090345;28;20265;-62
2023/04/01 11:49:46;;;;;;;0.00;0.00;;;;;;;;;;5089508;28;20210;-63
2023/04/01 11:52:19;;;;;;;0.05;0.05;;;;;;;;;;5090247;28;20202;-63
2023/04/01 11:54:57;;;;;;;0.00;0.00;;;;;;;;;;5090698;28;20202;-62
2023/04/01 11:57:36;;;;;;;0.00;0.00;;;;;;;;;;5091343;28;20218;-63
2023/04/01 12:00:26;;;;;;;0.10;0.10;;;;;;;;;;5091146;28;20202;-62
2023/04/01 12:03:03;;;;;;;0.00;0.00;;;;;;;;;;5091233;28;20206;-62
2023/04/01 12:05:38;;;;;;;0.35;0.10;;;;;;;;;;5091235;28;20198;-62
2023/04/01 12:08:13;;;;;;;0.00;0.00;;;;;;;;;;5090499;28;20209;-62
2023/04/01 12:10:42;;;;;;;0.00;0.00;;;;;;;;;;5091479;28;20216;-61
2023/04/01 12:13:16;;;;;;;0.10;0.10;;;;;;;;;;5090836;28;20590;-62
2023/04/01 12:15:50;;;;;;;0.00;0.00;;;;;;;;;;5090022;28;20206;-62
2023/04/01 12:18:22;;;;;;;0.00;0.00;;;;;;;;;;5091129;28;20212;-61
2023/04/01 12:20:53;;;;;;;0.00;0.00;;;;;;;;;;5090364;28;20215;-61
2023/04/01 12:23:47;;;;;;;0.30;0.10;;;;;;;;;;5089282;28;20253;-61
2023/04/01 12:26:27;;;;;;;0.10;0.10;;;;;;;;;;5090306;28;20613;-61
2023/04/01 12:29:00;;;;;;;0.10;0.10;;;;;;;;;;5090409;28;20210;-61
2023/04/01 12:31:33;;;;;;;0.10;0.10;;;;;;;;;;5090116;28;20534;-65
2023/04/01 12:34:06;;;;;;;0.10;0.10;;;;;;;;;;5090697;28;20207;-65
2023/04/01 12:36:42;;;;;;;0.10;0.10;;;;;;;;;;5090259;28;20230;-62
2023/04/01 12:39:20;;;;;;;0.10;0.10;;;;;;;;;;5087527;28;21095;-61
2023/04/01 12:41:50;;;;;;;0.90;0.10;;;;;;;;;;5089569;28;20202;-61
2023/04/01 12:44:34;;;;;;;0.10;0.10;;;;;;;;;;5088869;28;20661;-61
2023/04/01 12:47:08;;;;;;;0.10;0.10;;;;;;;;;;5087991;28;20292;-61
2023/04/01 12:49:45;;;;;;;0.08;0.08;;;;;;;;;;5088828;28;20198;-61
2023/04/01 12:52:13;;;;;;;0.10;0.10;;;;;;;;;;5088720;28;20236;-61
2023/04/01 12:54:59;;;;;;;0.10;0.10;;;;;;;;;;5089146;28;20209;-61
2023/04/01 12:57:45;;;;;;;0.05;0.05;;;;;;;;;;5089701;28;20390;-61
2023/04/01 13:00:31;;;;;;;0.10;0.10;;;;;;;;;;5089323;28;20883;-61
2023/04/01 13:03:08;;;;;;;0.00;0.00;;;;;;;;;;5089224;28;20293;-61
2023/04/01 13:05:50;;;;;;;0.10;0.10;;;;;;;;;;5069223;28;20214;-61
2023/04/01 13:08:36;;;;;;;0.10;0.10;;;;;;;;;;5069512;28;20202;-61
2023/04/01 13:11:11;;;;;;;0.17;0.00;;;;;;;;;;5089578;28;20673;-62
2023/04/01 13:13:56;;;;;;;0.10;0.10;;;;;;;;;;5089371;28;20202;-61
2023/04/01 13:16:25;;;;;;;0.20;0.03;;;;;;;;;;5089290;28;20968;-62
2023/04/01 13:18:57;;;;;;;0.00;0.00;;;;;;;;;;5089080;28;20210;-62
2023/04/01 13:21:29;;;;;;;0.00;0.00;;;;;;;;;;5088446;28;20206;-62
2023/04/01 13:24:02;;;;;;;0.10;0.10;;;;;;;;;;5088881;28;20230;-62
2023/04/01 13:26:35;;;;;;;0.10;0.10;;;;;;;;;;5088092;28;20939;-62
2023/04/01 13:29:06;;;;;;;0.10;0.10;;;;;;;;;;5088585;28;20207;-60
2023/04/01 13:31:50;;;;;;;0.10;0.10;;;;;;;;;;5088891;28;20214;-63
2023/04/01 13:34:30;;;;;;;0.20;0.20;;;;;;;;;;5088973;28;20213;-61
2023/04/01 13:37:03;;;;;;;0.10;0.10;;;;;;;;;;5088149;28;20237;-60
2023/04/01 13:39:38;;;;;;;0.10;0.10;;;;;;;;;;5088709;28;20669;-61
2023/04/01 13:42:14;;;;;;;0.10;0.10;;;;;;;;;;5088572;28;20613;-61
2023/04/01 13:44:43;;;;;;;0.10;0.10;;;;;;;;;;5088285;28;20205;-61
2023/04/01 13:47:26;;;;;;;0.10;0.10;;;;;;;;;;5088255;28;20210;-63
2023/04/01 13:50:20;;;;;;;0.10;0.10;;;;;;;;;;5088540;28;20213;-63
2023/04/01 13:52:56;;;;;;;1.90;0.10;;;;;;;;;;5052046;28;20210;-63
2023/04/01 13:55:28;;;;;;;0.00;0.00;;;;;;;;;;5088367;28;20221;-63
2023/04/01 13:58:06;;;;;;;0.07;0.07;;;;;;;;;;5089069;28;20226;-63
2023/04/01 14:00:53;;;;;;;1.77;0.10;;;;;;;;;;5088594;28;20217;-63
2023/04/01 14:03:28;;;;;;;0.10;0.10;;;;;;;;;;5088783;28;20221;-62
2023/04/01 14:06:04;;;;;;;0.00;0.00;;;;;;;;;;5086371;28;20700;-63
2023/04/01 14:08:36;;;;;;;0.00;0.00;;;;;;;;;;5089091;28;20255;-62
2023/04/01 14:11:11;;;;;;;0.10;0.10;;;;;;;;;;5086852;28;20202;-62
2023/04/01 14:13:43;;;;;;;0.10;0.10;;;;;;;;;;5088303;28;20209;-60
2023/04/01 14:16:18;;;;;;;0.03;0.03;;;;;;;;;;5088511;28;20267;-63
2023/04/01 14:18:54;;;;;;;0.00;0.00;;;;;;;;;;5088759;28;20205;-63
2023/04/01 14:21:30;;;;;;;0.08;0.08;;;;;;;;;;5088035;28;20213;-63
2023/04/01 14:24:04;;;;;;;0.10;0.10;;;;;;;;;;5087718;28;20233;-63
2023/04/01 14:26:51;;;;;;;0.10;0.10;;;;;;;;;;5089062;28;20667;-63
2023/04/01 14:29:24;;;;;;;0.00;0.00;;;;;;;;;;5088732;28;20210;-63
2023/04/01 14:31:56;;;;;;;0.00;0.00;;;;;;;;;;5088799;28;20210;-63
2023/04/01 14:34:27;;;;;;;0.45;0.05;;;;;;;;;;5088669;28;20209;-63
2023/04/01 14:37:03;;;;;;;0.00;0.00;;;;;;;;;;5088036;28;20249;-62
2023/04/01 14:39:36;;;;;;;0.10;0.10;;;;;;;;;;5088832;28;20209;-62
2023/04/01 14:42:13;;;;;;;0.10;0.10;;;;;;;;;;5087853;28;20194;-62
2023/04/01 14:44:55;;;;;;;0.10;0.10;;;;;;;;;;5088284;28;20206;-62
2023/04/01 14:47:43;;;;;;;0.00;0.00;;;;;;;;;;5055474;28;20237;-61
2023/04/01 14:50:14;;;;;;;0.32;0.08;;;;;;;;;;5087736;28;20213;-62
2023/04/01 14:52:43;;;;;;;0.10;0.10;;;;;;;;;;5092236;28;20226;-61
2023/04/01 14:55:21;;;;;;;0.00;0.00;;;;;;;;;;5092600;28;20213;-61
2023/04/01 14:58:01;;;;;;;0.10;0.10;;;;;;;;;;5091926;28;20225;-61
2023/04/01 15:00:28;;;;;;;0.10;0.10;;;;;;;;;;5091976;28;20259;-61
2023/04/01 15:03:02;;;;;;;0.00;0.00;;;;;;;;;;5091976;28;20202;-62
2023/04/01 15:05:34;;;;;;;0.10;0.10;;;;;;;;;;5091954;28;20218;-61
2023/04/01 15:08:09;;;;;;;0.10;0.10;;;;;;;;;;5071801;28;20235;-61
2023/04/01 15:10:48;;;;;;;0.10;0.10;;;;;;;;;;5073623;28;20210;-61
2023/04/01 15:13:21;;;;;;;0.15;0.15;;;;;;;;;;5092306;28;20419;-61
2023/04/01 15:15:54;;;;;;;0.17;0.17;;;;;;;;;;5088849;28;20221;-62
2023/04/01 15:18:27;;;;;;;0.17;0.17;;;;;;;;;;5091470;28;20325;-62